sensor_id;sensor_type;location;lat;lon;timestamp;P1;durP1;ratioP1;P2;durP2;ratioP2
3735;SDS011;1883;48.202;16.310;2023-02-03T01:08:18;18.83;;;5.20;;
3735;SDS011;1883;48.202;16.310;2023-02-03T01:10:45;8.57;;;4.07;;
3735;SDS011;1883;48.202;16.310;2023-02-03T01:13:13;10.67;;;4.60;;
3735;SDS011;1883;48.202;16.310;2023-02-03T01:15:44;8.43;;;4.47;;
3735;SDS011;1883;48.202;16.310;2023-02-03T01:18:12;10.47;;;4.00;;
3735;SDS011;1883;48.202;16.310;2023-02-03T01:20:39;11.50;;;4.97;;
3735;SDS011;1883;48.202;16.310;2023-02-03T02:02:33;7.20;;;3.57;;
3735;SDS011;1883;48.202;16.310;2023-02-03T02:05:02;6.93;;;3.27;;
3735;SDS011;1883;48.202;16.310;2023-02-03T02:07:33;6.67;;;2.90;;
3735;SDS011;1883;48.202;16.310;2023-02-03T02:15:09;6.47;;;2.77;;
3735;SDS011;1883;48.202;16.310;2023-02-03T02:17:50;6.27;;;2.93;;
3735;SDS011;1883;48.202;16.310;2023-02-03T02:20:33;6.83;;;3.10;;
3735;SDS011;1883;48.202;16.310;2023-02-03T02:23:35;4.60;;;1.73;;
3735;SDS011;1883;48.202;16.310;2023-02-03T02:26:38;5.37;;;2.30;;
3735;SDS011;1883;48.202;16.310;2023-02-03T02:32:23;4.83;;;1.90;;
3735;SDS011;1883;48.202;16.310;2023-02-03T02:35:02;3.60;;;1.40;;
3735;SDS011;1883;48.202;16.310;2023-02-03T02:37:37;5.30;;;1.93;;
3735;SDS011;1883;48.202;16.310;2023-02-03T02:40:14;7.53;;;2.60;;
3735;SDS011;1883;48.202;16.310;2023-02-03T02:42:55;4.10;;;1.40;;
3735;SDS011;1883;48.202;16.310;2023-02-03T02:45:28;4.77;;;2.20;;
3735;SDS011;1883;48.202;16.310;2023-02-03T02:48:00;6.03;;;1.30;;
3735;SDS011;1883;48.202;16.310;2023-02-03T02:50:32;4.23;;;1.40;;
3735;SDS011;1883;48.202;16.310;2023-02-03T02:53:02;4.80;;;1.70;;
3735;SDS011;1883;48.202;16.310;2023-02-03T03:03:19;3.10;;;1.13;;
3735;SDS011;1883;48.202;16.310;2023-02-03T03:05:49;3.33;;;1.40;;
3735;SDS011;1883;48.202;16.310;2023-02-03T03:08:20;7.97;;;1.50;;
3735;SDS011;1883;48.202;16.310;2023-02-03T03:10:54;4.97;;;1.50;;
3735;SDS011;1883;48.202;16.310;2023-02-03T03:13:23;3.63;;;1.43;;
3735;SDS011;1883;48.202;16.310;2023-02-03T03:15:55;3.40;;;1.30;;
3735;SDS011;1883;48.202;16.310;2023-02-03T03:18:26;3.13;;;1.37;;
3735;SDS011;1883;48.202;16.310;2023-02-03T03:20:56;2.60;;;1.00;;
3735;SDS011;1883;48.202;16.310;2023-02-03T03:23:31;3.60;;;1.80;;
3735;SDS011;1883;48.202;16.310;2023-02-03T03:26:04;3.70;;;1.10;;
3735;SDS011;1883;48.202;16.310;2023-02-03T03:28:39;3.23;;;1.27;;
3735;SDS011;1883;48.202;16.310;2023-02-03T03:31:12;3.33;;;1.20;;
3735;SDS011;1883;48.202;16.310;2023-02-03T03:33:41;4.63;;;1.53;;
3735;SDS011;1883;48.202;16.310;2023-02-03T03:36:11;12.63;;;1.70;;
3735;SDS011;1883;48.202;16.310;2023-02-03T03:38:45;2.40;;;1.10;;
3735;SDS011;1883;48.202;16.310;2023-02-03T03:41:22;2.20;;;0.90;;
3735;SDS011;1883;48.202;16.310;2023-02-03T03:43:54;2.63;;;1.20;;
3735;SDS011;1883;48.202;16.310;2023-02-03T03:46:24;2.67;;;1.13;;
3735;SDS011;1883;48.202;16.310;2023-02-03T03:48:55;5.53;;;2.10;;
3735;SDS011;1883;48.202;16.310;2023-02-03T03:51:27;3.20;;;1.23;;
3735;SDS011;1883;48.202;16.310;2023-02-03T03:54:00;3.50;;;1.20;;
3735;SDS011;1883;48.202;16.310;2023-02-03T03:56:31;3.87;;;1.57;;
3735;SDS011;1883;48.202;16.310;2023-02-03T03:59:04;2.80;;;1.13;;
3735;SDS011;1883;48.202;16.310;2023-02-03T04:01:34;2.07;;;0.90;;
3735;SDS011;1883;48.202;16.310;2023-02-03T04:04:04;4.40;;;0.87;;
3735;SDS011;1883;48.202;16.310;2023-02-03T04:06:35;2.07;;;0.80;;
3735;SDS011;1883;48.202;16.310;2023-02-03T04:09:19;1.97;;;0.70;;
3735;SDS011;1883;48.202;16.310;2023-02-03T04:11:47;1.73;;;0.70;;
3735;SDS011;1883;48.202;16.310;2023-02-03T04:14:31;1.90;;;0.70;;
3735;SDS011;1883;48.202;16.310;2023-02-03T04:16:59;2.10;;;0.90;;
3735;SDS011;1883;48.202;16.310;2023-02-03T04:19:28;2.27;;;0.73;;
3735;SDS011;1883;48.202;16.310;2023-02-03T04:21:55;1.70;;;0.80;;
3735;SDS011;1883;48.202;16.310;2023-02-03T04:24:22;2.03;;;0.63;;
3735;SDS011;1883;48.202;16.310;2023-02-03T04:26:49;1.40;;;0.60;;
3735;SDS011;1883;48.202;16.310;2023-02-03T04:29:17;1.50;;;0.60;;
3735;SDS011;1883;48.202;16.310;2023-02-03T04:31:44;1.40;;;0.60;;
3735;SDS011;1883;48.202;16.310;2023-02-03T04:34:11;2.37;;;1.03;;
3735;SDS011;1883;48.202;16.310;2023-02-03T04:36:39;1.63;;;0.70;;
3735;SDS011;1883;48.202;16.310;2023-02-03T04:39:06;1.70;;;0.70;;
3735;SDS011;1883;48.202;16.310;2023-02-03T04:41:33;1.70;;;0.70;;
3735;SDS011;1883;48.202;16.310;2023-02-03T04:44:00;1.73;;;0.73;;
3735;SDS011;1883;48.202;16.310;2023-02-03T04:46:27;4.33;;;0.80;;
3735;SDS011;1883;48.202;16.310;2023-02-03T04:48:54;1.70;;;0.80;;
3735;SDS011;1883;48.202;16.310;2023-02-03T04:51:21;2.43;;;1.00;;
3735;SDS011;1883;48.202;16.310;2023-02-03T04:53:50;2.30;;;0.90;;
3735;SDS011;1883;48.202;16.310;2023-02-03T04:56:17;2.10;;;1.10;;
3735;SDS011;1883;48.202;16.310;2023-02-03T04:58:44;2.33;;;1.00;;
